createdAt,value
2018-05-04T00:00:45.873Z,88.00
2018-05-04T00:03:12.469Z,88.17
2018-05-04T00:05:38.901Z,87.56
2018-05-04T00:08:05.266Z,87.86
2018-05-04T00:10:31.668Z,87.90
2018-05-04T00:12:58.066Z,88.31
2018-05-04T00:15:24.525Z,88.68
2018-05-04T00:17:50.961Z,88.67
2018-05-04T00:20:17.328Z,88.02
2018-05-04T00:22:43.696Z,88.80
2018-05-04T00:25:10.224Z,87.89
2018-05-04T00:27:36.603Z,88.08
2018-05-04T00:30:03.067Z,88.01
2018-05-04T00:32:29.465Z,89.20
2018-05-04T00:34:55.897Z,88.58
2018-05-04T00:37:22.282Z,89.31
2018-05-04T00:39:48.688Z,89.52
2018-05-04T00:42:15.023Z,90.33
2018-05-04T00:44:41.419Z,90.22
2018-05-04T00:47:07.782Z,91.00
2018-05-04T00:49:34.112Z,89.90
2018-05-04T00:52:00.553Z,89.52
2018-05-04T00:54:27.005Z,90.50
2018-05-04T00:56:53.335Z,91.04
2018-05-04T00:59:19.741Z,91.02
2018-05-04T01:01:46.108Z,91.46
2018-05-04T01:04:12.439Z,90.87
2018-05-04T01:06:38.831Z,90.41
2018-05-04T01:09:05.236Z,90.95
2018-05-04T01:11:31.644Z,91.03
2018-05-04T01:13:58.085Z,92.10
2018-05-04T01:16:24.465Z,91.80
2018-05-04T01:18:50.798Z,90.64
2018-05-04T01:21:17.148Z,90.19
2018-05-04T01:23:43.512Z,91.47
2018-05-04T01:26:09.980Z,91.24
2018-05-04T01:28:36.319Z,91.40
2018-05-04T01:31:02.807Z,91.33
2018-05-04T01:33:29.163Z,90.74
2018-05-04T01:35:55.572Z,91.24
2018-05-04T01:38:21.895Z,91.23
2018-05-04T01:40:48.297Z,91.63
2018-05-04T01:43:14.679Z,92.59
2018-05-04T01:45:41.193Z,91.06
2018-05-04T01:48:07.625Z,92.59
2018-05-04T01:50:33.977Z,91.74
2018-05-04T01:53:00.333Z,92.16
2018-05-04T01:55:26.728Z,92.52
2018-05-04T01:57:53.038Z,91.89
2018-05-04T02:00:19.421Z,91.73
2018-05-04T02:02:45.828Z,92.19
2018-05-04T02:05:12.218Z,91.93
2018-05-04T02:07:38.647Z,92.35
2018-05-04T02:10:04.991Z,92.54
2018-05-04T02:12:31.398Z,91.65
2018-05-04T02:14:57.925Z,92.66
2018-05-04T02:17:24.376Z,92.58
2018-05-04T02:19:50.717Z,92.51
2018-05-04T02:22:17.072Z,92.00
2018-05-04T02:24:43.413Z,91.58
2018-05-04T02:27:09.760Z,91.86
2018-05-04T02:29:36.197Z,91.23
2018-05-04T02:32:02.578Z,92.14
2018-05-04T02:34:28.995Z,92.46
2018-05-04T02:36:55.363Z,91.99
2018-05-04T02:39:21.699Z,92.10
2018-05-04T02:41:48.049Z,91.97
2018-05-04T02:44:14.440Z,92.46
2018-05-04T02:46:40.811Z,91.75
2018-05-04T02:49:07.141Z,92.07
2018-05-04T02:51:33.526Z,91.92
2018-05-04T02:53:59.863Z,92.16
2018-05-04T02:56:26.241Z,91.93
2018-05-04T02:58:52.684Z,91.40
2018-05-04T03:01:19.111Z,91.82
2018-05-04T03:03:45.443Z,92.11
2018-05-04T03:06:11.930Z,91.65
2018-05-04T03:08:38.284Z,92.12
2018-05-04T03:11:04.677Z,91.40
2018-05-04T03:13:31.172Z,91.32
2018-05-04T03:15:57.619Z,92.13
2018-05-04T03:18:23.949Z,91.65
2018-05-04T03:20:50.363Z,91.35
2018-05-04T03:23:16.857Z,90.79
2018-05-04T03:25:43.265Z,91.08
2018-05-04T03:28:09.678Z,91.57
2018-05-04T03:30:36.125Z,91.09
2018-05-04T03:33:02.492Z,91.48
2018-05-04T03:35:28.956Z,92.77
2018-05-04T03:37:55.364Z,92.23
2018-05-04T03:40:21.804Z,91.79
2018-05-04T03:42:48.273Z,91.18
2018-05-04T03:45:14.769Z,90.74
2018-05-04T03:47:41.202Z,91.10
2018-05-04T03:50:07.524Z,91.11
2018-05-04T03:52:33.886Z,90.13
2018-05-04T03:55:00.261Z,88.07
2018-05-04T03:57:38.971Z,87.03
2018-05-04T04:00:17.559Z,85.17
2018-05-04T04:02:56.068Z,82.60
2018-05-04T04:05:22.463Z,82.53
2018-05-04T04:07:48.883Z,83.34
2018-05-04T04:10:15.429Z,84.27
2018-05-04T04:12:41.839Z,84.61
2018-05-04T04:15:08.176Z,83.35
2018-05-04T04:17:34.534Z,83.88
2018-05-04T04:20:00.897Z,84.29
2018-05-04T04:22:27.349Z,85.51
2018-05-04T04:24:53.822Z,86.73
2018-05-04T04:27:20.233Z,86.68
2018-05-04T04:29:46.590Z,86.46
2018-05-04T04:32:13.011Z,85.92
2018-05-04T04:34:39.569Z,84.65
2018-05-04T04:37:05.991Z,84.85
2018-05-04T04:39:32.369Z,84.94
2018-05-04T04:41:58.812Z,84.32
2018-05-04T04:44:26.278Z,83.89
2018-05-04T04:46:52.838Z,82.46
2018-05-04T04:49:19.317Z,81.85
2018-05-04T04:51:45.751Z,81.24
2018-05-04T04:54:12.251Z,80.48
2018-05-04T04:56:38.778Z,78.10
2018-05-04T04:59:05.444Z,76.79
2018-05-04T05:01:31.907Z,75.96
2018-05-04T05:03:58.392Z,74.70
2018-05-04T05:06:24.926Z,74.26
2018-05-04T05:08:51.446Z,72.04
2018-05-04T05:11:17.842Z,69.49
2018-05-04T05:13:44.272Z,71.98
2018-05-04T05:16:10.775Z,72.03
2018-05-04T05:18:37.273Z,71.92
2018-05-04T05:21:03.866Z,70.17
2018-05-04T05:23:30.437Z,70.54
2018-05-04T05:25:57.409Z,68.74
2018-05-04T05:28:23.988Z,68.95
2018-05-04T05:30:50.577Z,66.93
2018-05-04T05:33:17.046Z,65.26
2018-05-04T05:35:43.566Z,64.27
2018-05-04T05:38:09.969Z,63.76
2018-05-04T05:40:36.390Z,64.99
2018-05-04T05:43:02.791Z,64.33
2018-05-04T05:45:29.234Z,65.51
2018-05-04T05:47:55.608Z,64.20
2018-05-04T05:50:21.993Z,63.94
2018-05-04T05:52:48.472Z,64.97
2018-05-04T05:55:14.944Z,66.46
2018-05-04T05:57:41.347Z,64.46
2018-05-04T06:00:07.822Z,61.63
2018-05-04T06:02:34.875Z,63.76
2018-05-04T06:05:01.482Z,61.32
2018-05-04T06:07:27.975Z,60.29
2018-05-04T06:09:54.502Z,64.17
2018-05-04T06:12:21.005Z,65.18
2018-05-04T06:14:47.517Z,66.87
2018-05-04T06:17:13.847Z,65.01
2018-05-04T06:19:40.257Z,65.33
2018-05-04T06:22:06.716Z,63.85
2018-05-04T06:24:33.140Z,62.15
2018-05-04T06:26:59.534Z,59.89
2018-05-04T06:29:25.925Z,63.08
2018-05-04T06:31:52.287Z,62.50
2018-05-04T06:34:18.665Z,64.75
2018-05-04T06:36:45.183Z,63.34
2018-05-04T06:39:11.545Z,63.51
2018-05-04T06:41:37.929Z,63.26
2018-05-04T06:44:04.333Z,66.28
2018-05-04T06:46:30.854Z,69.08
2018-05-04T06:48:57.230Z,68.92
2018-05-04T06:51:23.624Z,68.26
2018-05-04T06:53:49.994Z,66.77
2018-05-04T06:56:16.475Z,63.69
2018-05-04T06:58:44.840Z,61.39
2018-05-04T07:01:11.223Z,61.46
2018-05-04T07:03:37.637Z,62.89
2018-05-04T07:06:04.139Z,58.42
2018-05-04T07:08:30.512Z,60.17
2018-05-04T07:10:56.875Z,61.19
2018-05-04T07:13:23.342Z,59.59
2018-05-04T07:15:51.884Z,61.72
2018-05-04T07:18:18.677Z,56.67
2018-05-04T07:20:47.627Z,59.31
2018-05-04T07:23:14.748Z,56.56
2018-05-04T07:25:41.503Z,56.05
2018-05-04T07:28:10.447Z,59.20
2018-05-04T07:30:36.905Z,56.47
2018-05-04T07:33:03.390Z,55.03
2018-05-04T07:35:29.911Z,56.63
2018-05-04T07:37:56.473Z,57.21
2018-05-04T07:40:22.877Z,61.91
2018-05-04T07:42:49.337Z,63.47
2018-05-04T07:45:16.802Z,56.46
2018-05-04T07:47:43.182Z,58.91
2018-05-04T08:26:18.537Z,55.04
2018-05-04T08:28:44.949Z,54.29
2018-05-04T08:31:11.483Z,52.62
2018-05-04T08:33:38.049Z,53.72
2018-05-04T08:36:04.507Z,54.65
2018-05-04T08:38:30.969Z,53.74
2018-05-04T08:40:57.348Z,52.18
2018-05-04T08:43:23.732Z,52.69
2018-05-04T08:45:50.461Z,56.48
2018-05-04T08:48:16.940Z,49.02
2018-05-04T08:50:43.650Z,48.55
2018-05-04T08:53:10.067Z,52.06
2018-05-04T08:55:36.589Z,47.34
2018-05-04T08:58:02.963Z,45.22
2018-05-04T09:00:29.443Z,47.18
2018-05-04T09:02:55.835Z,46.14
2018-05-04T09:05:22.390Z,45.17
2018-05-04T09:07:48.780Z,46.38
2018-05-04T09:10:15.161Z,46.81
2018-05-04T09:12:41.628Z,44.46
2018-05-04T09:15:08.086Z,43.72
2018-05-04T09:17:34.513Z,44.41
2018-05-04T09:20:00.858Z,45.00
2018-05-04T09:22:27.213Z,45.32
2018-05-04T09:24:53.648Z,43.41
2018-05-04T09:27:20.273Z,44.13
2018-05-04T09:29:47.114Z,45.72
2018-05-04T09:32:13.590Z,42.36
2018-05-04T09:34:40.356Z,44.52
2018-05-04T09:37:06.958Z,44.79
2018-05-04T09:39:33.700Z,41.26
2018-05-04T09:42:00.255Z,43.74
2018-05-04T09:44:26.804Z,43.60
2018-05-04T09:46:53.391Z,44.62
2018-05-04T09:49:20.213Z,44.31
2018-05-04T09:51:46.786Z,44.09
2018-05-04T09:54:13.407Z,44.57
2018-05-04T09:56:39.916Z,42.70
2018-05-04T09:59:06.330Z,41.46
2018-05-04T10:01:34.148Z,42.48
2018-05-04T10:04:00.820Z,42.60
2018-05-04T10:06:28.747Z,44.49
2018-05-04T10:08:55.306Z,44.22
2018-05-04T10:11:21.762Z,43.60
2018-05-04T10:13:48.132Z,43.34
2018-05-04T10:16:14.643Z,41.43
2018-05-04T10:18:41.058Z,41.72
2018-05-04T10:21:07.425Z,39.87
2018-05-04T10:23:33.844Z,42.79
2018-05-04T10:26:00.365Z,39.67
2018-05-04T10:28:26.828Z,41.03
2018-05-04T10:30:53.308Z,38.72
2018-05-04T10:33:19.719Z,41.55
2018-05-04T10:35:46.208Z,37.61
2018-05-04T10:38:12.737Z,38.75
2018-05-04T10:40:39.071Z,37.05
2018-05-04T10:43:05.666Z,40.37
2018-05-04T10:45:32.190Z,36.45
2018-05-04T10:47:58.604Z,37.63
2018-05-04T10:50:25.123Z,37.46
2018-05-04T10:52:51.638Z,39.41
2018-05-04T10:55:18.178Z,37.61
2018-05-04T10:57:44.839Z,38.39
2018-05-04T11:00:11.339Z,35.64
2018-05-04T11:02:37.740Z,39.42
2018-05-04T11:05:04.261Z,36.95
2018-05-04T11:07:30.780Z,37.83
2018-05-04T11:09:57.302Z,38.71
2018-05-04T11:12:23.782Z,40.28
2018-05-04T11:14:50.135Z,40.39
2018-05-04T11:17:16.563Z,38.73
2018-05-04T11:19:42.932Z,40.54
2018-05-04T11:22:09.275Z,38.94
2018-05-04T11:24:35.673Z,43.17
2018-05-04T11:27:02.150Z,39.31
2018-05-04T11:29:28.705Z,41.21
2018-05-04T11:31:55.151Z,39.24
2018-05-04T11:34:21.527Z,39.72
2018-05-04T11:36:47.993Z,37.91
2018-05-04T11:39:14.566Z,37.36
2018-05-04T11:41:41.318Z,38.39
2018-05-04T11:44:07.837Z,35.77
2018-05-04T11:46:34.374Z,37.38
2018-05-04T11:49:00.782Z,41.34
2018-05-04T11:51:27.557Z,38.22
2018-05-04T11:53:54.708Z,37.54
2018-05-04T11:56:21.448Z,35.97
2018-05-04T11:58:48.045Z,37.41
2018-05-04T12:01:14.725Z,34.95
2018-05-04T12:03:41.257Z,36.10
2018-05-04T12:06:07.894Z,38.79
2018-05-04T12:08:34.641Z,35.60
2018-05-04T12:11:01.009Z,35.54
2018-05-04T12:13:28.756Z,36.59
2018-05-04T12:15:55.193Z,39.32
2018-05-04T12:18:21.549Z,40.54
2018-05-04T12:20:48.044Z,39.91
2018-05-04T12:23:14.468Z,38.05
2018-05-04T12:25:41.115Z,40.95
2018-05-04T12:28:07.546Z,39.43
2018-05-04T12:30:34.069Z,38.61
2018-05-04T12:33:00.724Z,39.76
2018-05-04T12:35:27.161Z,41.80
2018-05-04T12:37:53.689Z,42.08
2018-05-04T12:40:20.322Z,42.38
2018-05-04T12:42:47.786Z,41.02
2018-05-04T12:45:14.246Z,42.00
2018-05-04T12:47:40.738Z,42.55
2018-05-04T12:50:07.181Z,41.91
2018-05-04T12:52:33.726Z,42.14
2018-05-04T12:55:00.570Z,41.69
2018-05-04T12:57:27.106Z,41.27
2018-05-04T12:59:53.524Z,40.32
2018-05-04T13:02:19.916Z,40.94
2018-05-04T13:04:46.612Z,39.97
2018-05-04T13:07:13.231Z,40.68
2018-05-04T13:09:39.892Z,40.04
2018-05-04T13:12:06.531Z,39.94
2018-05-04T13:14:33.042Z,40.99
2018-05-04T13:16:59.561Z,41.50
2018-05-04T13:19:26.437Z,43.25
2018-05-04T13:21:53.077Z,43.18
2018-05-04T13:24:21.979Z,45.43
2018-05-04T13:26:51.021Z,45.25
2018-05-04T13:29:17.713Z,44.63
2018-05-04T13:31:44.105Z,45.36
2018-05-04T13:34:10.954Z,47.22
2018-05-04T13:36:37.583Z,48.52
2018-05-04T13:39:05.393Z,47.43
2018-05-04T13:41:32.187Z,47.66
2018-05-04T13:43:58.539Z,50.10
2018-05-04T13:46:25.207Z,49.16
2018-05-04T13:48:51.937Z,48.11
2018-05-04T13:51:18.344Z,46.42
2018-05-04T13:53:45.119Z,45.71
2018-05-04T13:56:12.700Z,44.35
2018-05-04T13:58:39.834Z,45.80
2018-05-04T14:01:09.756Z,48.83
2018-05-04T14:03:38.631Z,47.58
2018-05-04T14:06:05.287Z,45.77
2018-05-04T14:08:31.682Z,47.40
2018-05-04T14:10:58.184Z,50.49
2018-05-04T14:13:24.594Z,54.85
2018-05-04T14:15:51.011Z,57.16
2018-05-04T14:18:17.470Z,58.17
2018-05-04T14:20:43.840Z,59.92
2018-05-04T14:23:10.376Z,61.75
2018-05-04T14:25:36.994Z,61.81
2018-05-04T14:28:03.362Z,62.21
2018-05-04T14:30:29.690Z,63.09
2018-05-04T14:32:56.101Z,63.69
2018-05-04T14:35:22.577Z,63.78
2018-05-04T14:37:48.996Z,64.87
2018-05-04T14:40:15.502Z,65.01
2018-05-04T14:42:41.895Z,66.02
2018-05-04T14:45:08.322Z,65.75
2018-05-04T14:47:34.747Z,66.32
2018-05-04T14:50:01.421Z,64.97
2018-05-04T14:52:27.922Z,64.50
2018-05-04T14:54:54.499Z,64.70
2018-05-04T14:57:21.129Z,65.07
2018-05-04T14:59:47.590Z,64.52
2018-05-04T15:02:14.059Z,63.88
2018-05-04T15:04:40.510Z,64.64
2018-05-04T15:07:07.037Z,65.87
2018-05-04T15:09:33.414Z,66.50
2018-05-04T15:11:59.806Z,64.94
2018-05-04T15:14:26.246Z,63.99
2018-05-04T15:16:52.807Z,62.71
2018-05-04T15:19:19.472Z,60.84
2018-05-04T15:21:45.909Z,60.55
2018-05-04T15:24:12.382Z,60.70
2018-05-04T15:26:38.993Z,59.11
2018-05-04T15:29:05.338Z,58.31
2018-05-04T15:31:32.074Z,59.73
2018-05-04T15:33:58.594Z,57.73
2018-05-04T15:36:25.145Z,52.70
2018-05-04T15:38:51.701Z,51.99
2018-05-04T15:41:18.277Z,51.78
2018-05-04T15:43:44.724Z,51.19
2018-05-04T15:46:11.306Z,50.03
2018-05-04T15:48:43.686Z,50.95
2018-05-04T15:51:16.027Z,50.94
2018-05-04T15:53:42.590Z,50.52
2018-05-04T15:56:09.087Z,50.04
2018-05-04T15:58:35.610Z,48.07
2018-05-04T16:01:01.994Z,48.83
2018-05-04T16:03:29.037Z,48.39
2018-05-04T16:05:55.515Z,47.43
2018-05-04T16:08:21.929Z,49.83
2018-05-04T16:10:48.324Z,47.62
2018-05-04T16:13:14.721Z,47.58
2018-05-04T16:15:41.187Z,47.68
2018-05-04T16:18:07.649Z,48.82
2018-05-04T16:20:34.027Z,47.83
2018-05-04T16:23:00.530Z,48.34
2018-05-04T16:25:26.984Z,49.79
2018-05-04T16:27:54.516Z,51.44
2018-05-04T16:30:21.249Z,51.50
2018-05-04T16:32:47.888Z,52.71
2018-05-04T16:35:14.609Z,52.11
2018-05-04T16:37:41.464Z,53.73
2018-05-04T16:40:08.110Z,53.84
2018-05-04T16:42:34.757Z,53.28
2018-05-04T16:45:01.371Z,53.64
2018-05-04T16:47:27.989Z,53.13
2018-05-04T16:49:55.018Z,52.65
2018-05-04T16:52:21.618Z,53.94
2018-05-04T16:54:48.046Z,53.97
2018-05-04T16:57:14.695Z,53.43
2018-05-04T16:59:41.636Z,53.04
2018-05-04T17:02:08.084Z,53.96
2018-05-04T17:04:34.712Z,53.85
2018-05-04T17:07:01.456Z,51.98
2018-05-04T17:09:28.083Z,52.73
2018-05-04T17:11:55.440Z,50.63
2018-05-04T17:14:22.591Z,50.74
2018-05-04T17:16:49.337Z,47.96
2018-05-04T17:19:22.794Z,49.00
2018-05-04T17:21:49.706Z,48.63
2018-05-04T17:24:16.835Z,46.94
2018-05-04T17:26:44.425Z,47.71
2018-05-04T17:29:12.852Z,51.50
2018-05-04T17:31:41.179Z,50.18
2018-05-04T17:34:08.872Z,50.59
2018-05-04T17:36:36.161Z,52.52
2018-05-04T17:39:03.186Z,52.20
2018-05-04T17:41:30.342Z,53.57
2018-05-04T17:43:56.971Z,54.82
2018-05-04T17:46:24.158Z,53.72
2018-05-04T17:48:50.850Z,53.42
2018-05-04T17:51:17.441Z,52.90
2018-05-04T17:53:43.921Z,55.11
2018-05-04T17:56:10.803Z,54.34
2018-05-04T17:58:37.570Z,54.25
2018-05-04T18:01:04.197Z,52.92
2018-05-04T18:03:30.786Z,53.61
2018-05-04T18:05:57.500Z,51.73
2018-05-04T18:08:24.650Z,51.52
2018-05-04T18:10:51.487Z,51.87
2018-05-04T18:13:18.568Z,50.67
2018-05-04T18:15:45.787Z,51.49
2018-05-04T18:18:12.510Z,52.30
2018-05-04T18:20:40.505Z,51.07
2018-05-04T18:23:07.574Z,51.67
2018-05-04T18:25:34.319Z,51.09
2018-05-04T18:28:00.877Z,51.16
2018-05-04T18:30:28.012Z,51.11
2018-05-04T18:32:54.554Z,52.38
2018-05-04T18:35:21.290Z,52.45
2018-05-04T18:37:48.380Z,51.28
2018-05-04T18:40:15.160Z,54.00
2018-05-04T18:42:41.988Z,53.01
2018-05-04T18:45:09.082Z,52.21
2018-05-04T18:47:35.790Z,53.96
2018-05-04T18:50:02.366Z,54.02
2018-05-04T18:52:29.199Z,55.58
2018-05-04T18:54:55.991Z,58.75
2018-05-04T18:57:22.867Z,55.81
2018-05-04T18:59:49.684Z,57.66
2018-05-04T19:02:22.435Z,57.32
2018-05-04T19:04:49.642Z,56.28
2018-05-04T19:07:16.767Z,55.68
2018-05-04T19:09:44.748Z,56.86
2018-05-04T19:12:12.102Z,58.26
2018-05-04T19:14:38.700Z,59.18
2018-05-04T19:17:05.444Z,59.05
2018-05-04T19:19:33.051Z,60.31
2018-05-04T19:22:00.414Z,61.91
2018-05-04T19:24:27.928Z,61.97
2018-05-04T19:26:55.449Z,62.57
2018-05-04T19:29:22.172Z,62.54
2018-05-04T19:31:49.115Z,60.83
2018-05-04T19:34:15.879Z,62.30
2018-05-04T19:36:42.553Z,59.34
2018-05-04T19:39:09.254Z,61.85
2018-05-04T19:41:35.887Z,63.98
2018-05-04T19:44:02.419Z,62.15
2018-05-04T19:46:29.521Z,63.65
2018-05-04T19:48:57.322Z,64.72
2018-05-04T19:51:25.200Z,63.22
2018-05-04T19:53:51.716Z,62.46
2018-05-04T19:56:18.560Z,61.15
2018-05-04T19:58:45.279Z,63.40
2018-05-04T20:01:11.766Z,63.09
2018-05-04T20:03:38.380Z,62.03
2018-05-04T20:06:04.729Z,62.82
2018-05-04T20:08:31.248Z,62.19
2018-05-04T20:10:57.669Z,62.83
2018-05-04T20:13:24.152Z,62.55
2018-05-04T20:15:50.927Z,64.67
2018-05-04T20:18:17.665Z,65.41
2018-05-04T20:20:44.514Z,64.64
2018-05-04T20:23:11.354Z,64.86
2018-05-04T20:25:38.093Z,64.88
2018-05-04T20:28:05.245Z,65.49
2018-05-04T20:30:32.091Z,66.53
2018-05-04T20:32:58.583Z,68.23
2018-05-04T20:35:25.072Z,67.23
2018-05-04T20:37:51.582Z,68.07
2018-05-04T20:40:18.518Z,68.15
2018-05-04T20:42:44.967Z,68.63
2018-05-04T20:45:11.471Z,69.65
2018-05-04T20:47:38.057Z,69.79
2018-05-04T20:50:04.507Z,68.74
2018-05-04T20:52:31.159Z,69.61
2018-05-04T20:54:57.661Z,70.64
2018-05-04T20:57:24.434Z,70.97
2018-05-04T20:59:51.203Z,71.82
2018-05-04T21:02:17.946Z,71.81
2018-05-04T21:04:44.835Z,71.95
2018-05-04T21:07:11.407Z,72.33
2018-05-04T21:09:37.841Z,71.87
2018-05-04T21:12:05.971Z,72.21
2018-05-04T21:14:32.921Z,72.33
2018-05-04T21:16:59.543Z,72.51
2018-05-04T21:19:26.188Z,73.73
2018-05-04T21:21:52.593Z,74.00
2018-05-04T21:24:19.135Z,72.80
2018-05-04T21:26:45.589Z,72.62
2018-05-04T21:29:12.169Z,73.49
2018-05-04T21:31:38.761Z,73.21
2018-05-04T21:34:05.309Z,72.52
2018-05-04T21:36:31.741Z,72.61
2018-05-04T21:38:58.272Z,72.32
2018-05-04T21:41:24.807Z,72.87
2018-05-04T21:43:51.288Z,72.22
2018-05-04T21:46:17.715Z,72.84
2018-05-04T21:48:44.218Z,73.55
2018-05-04T21:51:10.684Z,73.24
2018-05-04T21:53:37.130Z,72.60
2018-05-04T21:56:03.540Z,72.56
2018-05-04T21:58:29.901Z,72.51
2018-05-04T22:00:56.275Z,72.68
2018-05-04T22:03:22.656Z,72.67
2018-05-04T22:05:48.981Z,72.98
2018-05-04T22:08:15.323Z,72.05
2018-05-04T22:10:41.750Z,72.43
2018-05-04T22:13:08.181Z,73.10
2018-05-04T22:15:34.631Z,72.04
2018-05-04T22:18:01.081Z,71.72
2018-05-04T22:20:27.479Z,72.79
2018-05-04T22:22:53.835Z,72.35
2018-05-04T22:25:20.168Z,72.68
2018-05-04T22:27:46.642Z,72.81
2018-05-04T22:30:13.028Z,73.08
2018-05-04T22:32:39.365Z,73.34
2018-05-04T22:35:05.698Z,72.71
2018-05-04T22:37:32.107Z,73.53
2018-05-04T22:39:58.603Z,73.49
2018-05-04T22:42:24.993Z,73.89
2018-05-04T22:44:51.377Z,73.69
2018-05-04T22:47:17.748Z,73.22
2018-05-04T22:49:44.239Z,72.42
2018-05-04T22:52:10.626Z,72.09
2018-05-04T22:54:36.990Z,72.30
2018-05-04T22:57:03.317Z,71.90
2018-05-04T22:59:29.818Z,72.17
2018-05-04T23:01:56.214Z,72.05
2018-05-04T23:04:22.693Z,72.22
2018-05-04T23:06:49.446Z,72.80
2018-05-04T23:09:16.201Z,73.23
2018-05-04T23:11:42.595Z,72.98
2018-05-04T23:14:09.615Z,73.17
2018-05-04T23:16:36.071Z,73.90
2018-05-04T23:19:02.590Z,72.97
2018-05-04T23:21:29.073Z,73.65
2018-05-04T23:23:55.569Z,72.24
2018-05-04T23:26:22.007Z,72.74
2018-05-04T23:28:48.511Z,71.85
2018-05-04T23:31:15.102Z,72.60
2018-05-04T23:33:41.534Z,72.46
2018-05-04T23:36:07.954Z,73.48
2018-05-04T23:38:34.458Z,74.51
2018-05-04T23:41:00.869Z,72.83
2018-05-04T23:43:27.244Z,75.08
2018-05-04T23:45:53.657Z,75.68
2018-05-04T23:48:20.234Z,75.76
2018-05-04T23:50:46.605Z,75.96
2018-05-04T23:53:12.966Z,73.73
2018-05-04T23:55:39.333Z,74.04
2018-05-04T23:58:05.800Z,74.27
